ベルリン/テーゲル の空港の天気 - METARとTAF

ベルリン・テーゲル国際空港 ( EDDT / TXL ) - ドイツ ベルリン
飛行場実況気象(Metar)
観測時間05/28 02:20 CEST (05/28 00:20 UTC)
風向・風速北東 4m/s
視程10km以上
天気現象
少しの雲 雲底高度 1160m
気温14℃
湿度63%
気圧1029hPa
METAREDDT 280020Z 04007KT 010V070 9999 FEW038 14/07 Q1029
過去の天気等 Google飛行場航空写真 Wunderground天気予報

過去48時間のMETAR

飛行場予報(TAF)
発表時間: 5/28 01:00 CEST (5/27 23:00 UTC)
予報対象時間: 28日2時 CEST ~ 29日2時 CEST
風向・風速北 5m/s
視程10km以上
全天の8割程度の雲 雲底高度 910m
28日2時 CEST ~ 28日4時 CEST に 確率 30% で一時的に
天気現象
全天の8割程度の雲 雲底高度 400m
28日13時 CEST ~ 28日18時 CEST に 確率 30% で一時的に
風向・風速北 8m/s 瞬間風速 13m/s
28日20時 CEST ~ 28日22時 CEST に徐々に
風向・風速北北東 3m/s
TAF EDDT 272300Z 2800/2824 36010KT 9999 BKN030
PROB30 TEMPO 2800/2802 RA BKN013
PROB30 TEMPO 2811/2816 01015G25KT
BECMG 2818/2820 02005KT